Terminal Aerodrome Forecast
Issued by NWS

Home | Current Version | Previous Version | Text Only | Print | Product List | Glossary On
Versions: 1 2 3 4 5 6 7 8 9 10 11 12 13 14 15 16 17 18 19 20 21 22 23 24 25 26 27 28 29 30
000
FTUS45 KCYS 061459 AAA
TAFRWL
TAF AMD
KRWL 061459Z 0615/0712 25015G23KT P6SM SCT200
     FM061800 25020G30KT P6SM FEW250
     FM070200 25009KT P6SM SCT150=

USA.gov is the U.S. government's official web portal to all federal, state and local government web resources and services.